createdAt,value
2018-07-24T00:00:01.051Z,24.40
2018-07-24T00:02:28.699Z,24.43
2018-07-24T00:04:56.458Z,24.72
2018-07-24T00:07:24.118Z,23.60
2018-07-24T00:09:51.918Z,25.62
2018-07-24T00:12:19.604Z,25.90
2018-07-24T00:14:47.277Z,24.47
2018-07-24T00:17:14.940Z,23.70
2018-07-24T00:19:42.607Z,24.70
2018-07-24T00:22:10.388Z,24.87
2018-07-24T00:24:38.035Z,22.20
2018-07-24T00:27:05.734Z,23.35
2018-07-24T00:29:33.417Z,23.12
2018-07-24T00:32:01.085Z,21.80
2018-07-24T00:34:28.767Z,24.95
2018-07-24T00:36:56.535Z,23.18
2018-07-24T00:39:24.204Z,21.62
2018-07-24T00:41:51.881Z,22.73
2018-07-24T00:44:19.630Z,22.15
2018-07-24T00:46:47.304Z,23.10
2018-07-24T00:49:15.055Z,21.93
2018-07-24T00:51:42.746Z,22.15
2018-07-24T00:54:10.434Z,22.85
2018-07-24T00:56:38.203Z,25.02
2018-07-24T00:59:06.035Z,23.47
2018-07-24T01:01:33.724Z,22.70
2018-07-24T01:04:01.530Z,22.15
2018-07-24T01:06:29.209Z,24.98
2018-07-24T01:08:56.907Z,23.75
2018-07-24T01:11:24.694Z,22.70
2018-07-24T01:13:52.376Z,23.07
2018-07-24T01:16:20.035Z,23.62
2018-07-24T01:18:47.735Z,23.45
2018-07-24T01:21:15.423Z,24.10
2018-07-24T01:23:43.095Z,23.65
2018-07-24T01:26:10.740Z,22.58
2018-07-24T01:28:38.486Z,24.15
2018-07-24T01:31:06.130Z,25.10
2018-07-24T01:33:33.826Z,22.58
2018-07-24T01:36:01.460Z,23.22
2018-07-24T01:38:29.181Z,23.65
2018-07-24T01:40:56.838Z,24.02
2018-07-24T01:43:24.524Z,23.38
2018-07-24T01:45:52.286Z,24.70
2018-07-24T01:48:19.914Z,23.80
2018-07-24T01:50:47.551Z,23.75
2018-07-24T01:53:15.167Z,24.32
2018-07-24T01:55:42.820Z,24.30
2018-07-24T01:58:10.485Z,25.10
2018-07-24T02:00:38.446Z,24.12
2018-07-24T02:03:06.130Z,24.25
2018-07-24T02:05:33.803Z,23.73
2018-07-24T02:08:01.464Z,26.33
2018-07-24T02:10:29.109Z,26.12
2018-07-24T02:12:56.780Z,24.27
2018-07-24T02:15:24.403Z,25.48
2018-07-24T02:17:52.164Z,24.30
2018-07-24T02:20:20.162Z,25.32
2018-07-24T02:22:47.787Z,25.17
2018-07-24T02:25:15.456Z,25.60
2018-07-24T02:27:43.097Z,25.32
2018-07-24T02:30:11.724Z,26.93
2018-07-24T02:32:39.375Z,26.15
2018-07-24T02:35:07.306Z,26.30
2018-07-24T02:37:34.943Z,25.85
2018-07-24T02:40:02.692Z,26.82
2018-07-24T02:42:30.430Z,27.65
2018-07-24T02:44:58.109Z,27.90
2018-07-24T02:47:25.745Z,27.13
2018-07-24T02:49:53.553Z,27.50
2018-07-24T02:52:21.211Z,26.35
2018-07-24T02:54:48.892Z,26.60
2018-07-24T02:57:16.573Z,29.00
2018-07-24T02:59:44.416Z,26.37
2018-07-24T03:02:12.163Z,27.98
2018-07-24T03:04:39.828Z,26.93
2018-07-24T03:07:07.443Z,26.55
2018-07-24T03:09:35.218Z,28.65
2018-07-24T03:12:02.928Z,27.13
2018-07-24T03:14:30.599Z,27.00
2018-07-24T03:16:58.285Z,27.70
2018-07-24T03:19:25.949Z,28.42
2018-07-24T03:21:53.619Z,26.62
2018-07-24T03:24:21.399Z,29.00
2018-07-24T03:26:49.192Z,26.75
2018-07-24T03:29:16.967Z,26.35
2018-07-24T03:31:44.620Z,27.95
2018-07-24T03:34:12.243Z,29.35
2018-07-24T03:36:39.992Z,30.00
2018-07-24T03:39:09.655Z,29.55
2018-07-24T03:41:37.370Z,29.98
2018-07-24T03:44:05.036Z,32.85
2018-07-24T03:46:32.838Z,30.88
2018-07-24T03:49:00.581Z,29.87
2018-07-24T03:51:28.384Z,30.32
2018-07-24T03:53:56.035Z,31.05
2018-07-24T03:56:23.704Z,31.35
2018-07-24T03:58:51.489Z,30.48
2018-07-24T04:01:19.308Z,29.67
2018-07-24T04:03:46.931Z,31.05
2018-07-24T04:06:14.592Z,34.73
2018-07-24T04:08:42.393Z,32.50
2018-07-24T04:11:10.091Z,33.80
2018-07-24T04:13:37.759Z,36.35
2018-07-24T04:16:05.440Z,36.20
2018-07-24T04:18:44.722Z,35.35
2018-07-24T04:21:12.560Z,36.35
2018-07-24T04:23:40.387Z,33.50
2018-07-24T04:26:07.994Z,35.78
2018-07-24T04:28:35.668Z,36.10
2018-07-24T04:31:03.443Z,34.65
2018-07-24T04:33:31.049Z,37.15
2018-07-24T04:35:58.862Z,34.10
2018-07-24T04:38:26.543Z,34.80
2018-07-24T04:40:54.175Z,34.33
2018-07-24T04:43:21.966Z,32.83
2018-07-24T04:45:49.642Z,33.55
2018-07-24T04:48:17.440Z,35.13
2018-07-24T04:50:45.334Z,36.35
2018-07-24T04:53:13.689Z,34.55
2018-07-24T04:55:41.468Z,33.75
2018-07-24T04:58:09.127Z,34.20
2018-07-24T05:00:36.950Z,35.88
2018-07-24T05:03:04.996Z,35.52
2018-07-24T05:05:33.143Z,33.48
2018-07-24T05:08:00.764Z,34.20
2018-07-24T05:10:28.577Z,34.80
2018-07-24T05:12:56.515Z,35.68
2018-07-24T05:15:24.184Z,34.40
2018-07-24T05:17:51.843Z,35.13
2018-07-24T05:20:19.484Z,33.35
2018-07-24T05:22:47.231Z,33.18
2018-07-24T05:25:14.920Z,31.68
2018-07-24T05:27:42.677Z,33.65
2018-07-24T05:30:10.335Z,32.35
2018-07-24T05:32:38.024Z,31.45
2018-07-24T05:35:05.970Z,32.17
2018-07-24T05:37:33.639Z,30.43
2018-07-24T05:40:01.321Z,31.95
2018-07-24T05:42:29.196Z,35.43
2018-07-24T05:44:56.931Z,35.68
2018-07-24T05:47:24.702Z,36.20
2018-07-24T05:49:52.386Z,33.48
2018-07-24T05:52:20.059Z,33.63
2018-07-24T05:54:47.756Z,33.48
2018-07-24T05:57:15.472Z,32.30
2018-07-24T05:59:43.368Z,33.65
2018-07-24T06:02:11.978Z,33.20
2018-07-24T06:04:39.709Z,34.30
2018-07-24T06:07:07.419Z,32.23
2018-07-24T06:09:35.112Z,33.67
2018-07-24T06:12:02.793Z,34.78
2018-07-24T06:14:30.622Z,33.88
2018-07-24T06:16:58.261Z,33.88
2018-07-24T06:19:25.988Z,31.45
2018-07-24T06:21:53.633Z,33.10
2018-07-24T06:24:21.343Z,33.85
2018-07-24T06:26:49.206Z,34.10
2018-07-24T06:29:17.025Z,33.15
2018-07-24T06:31:44.660Z,31.48
2018-07-24T06:34:12.341Z,33.55
2018-07-24T06:36:40.045Z,32.38
2018-07-24T06:39:09.971Z,33.33
2018-07-24T06:41:38.031Z,32.30
2018-07-24T06:44:05.858Z,30.17
2018-07-24T06:46:33.527Z,32.70
2018-07-24T06:49:01.392Z,30.57
2018-07-24T06:51:29.277Z,26.37
2018-07-24T06:53:56.915Z,28.95
2018-07-24T06:56:24.617Z,29.10
2018-07-24T06:58:52.299Z,31.27
2018-07-24T07:01:20.182Z,30.27
2018-07-24T07:03:48.089Z,27.75
2018-07-24T07:06:15.824Z,28.10
2018-07-24T07:08:43.451Z,25.93
2018-07-24T07:11:11.292Z,23.90
2018-07-24T07:13:38.949Z,23.15
2018-07-24T07:16:06.831Z,24.57
2018-07-24T07:18:34.522Z,23.07
2018-07-24T07:21:02.277Z,22.62
2018-07-24T07:23:30.344Z,21.30
2018-07-24T07:25:58.025Z,21.07
2018-07-24T07:28:25.727Z,19.57
2018-07-24T07:30:53.395Z,20.27
2018-07-24T07:33:21.095Z,21.80
2018-07-24T07:35:48.774Z,18.43
2018-07-24T07:38:16.590Z,20.03
2018-07-24T07:40:44.279Z,18.50
2018-07-24T07:43:11.989Z,17.80
2018-07-24T07:45:39.679Z,17.10
2018-07-24T07:48:07.371Z,18.57
2018-07-24T07:50:35.043Z,17.43
2018-07-24T07:53:02.910Z,17.40
2018-07-24T07:55:30.644Z,17.03
2018-07-24T07:57:58.352Z,15.87
2018-07-24T08:00:26.195Z,18.23
2018-07-24T08:02:54.036Z,16.80
2018-07-24T08:05:21.675Z,16.87
2018-07-24T08:07:49.343Z,17.40
2018-07-24T08:10:17.059Z,17.67
2018-07-24T08:12:44.713Z,16.80
2018-07-24T08:15:12.400Z,15.97
2018-07-24T08:17:40.111Z,16.23
2018-07-24T08:20:07.915Z,19.67
2018-07-24T08:22:35.577Z,17.93
2018-07-24T08:25:03.579Z,15.17
2018-07-24T08:27:31.261Z,21.10
2018-07-24T08:29:59.072Z,14.43
2018-07-24T08:32:26.775Z,16.80
2018-07-24T08:34:54.592Z,15.27
2018-07-24T08:37:22.263Z,12.93
2018-07-24T08:39:49.936Z,14.47
2018-07-24T08:42:17.626Z,15.00
2018-07-24T08:44:45.423Z,15.67
2018-07-24T08:47:13.100Z,15.10
2018-07-24T08:49:40.808Z,13.10
2018-07-24T08:52:08.643Z,12.67
2018-07-24T08:54:36.570Z,13.60
2018-07-24T08:57:04.088Z,13.90
2018-07-24T08:59:31.867Z,12.53
2018-07-24T09:01:59.999Z,13.37
2018-07-24T09:04:27.763Z,13.17
2018-07-24T09:06:55.654Z,13.77
2018-07-24T09:09:23.303Z,12.17
2018-07-24T09:11:50.962Z,12.53
2018-07-24T09:14:18.740Z,11.40
2018-07-24T09:16:46.411Z,10.70
2018-07-24T09:19:14.092Z,12.50
2018-07-24T09:21:41.980Z,11.93
2018-07-24T09:24:09.694Z,12.03
2018-07-24T09:26:37.330Z,11.50
2018-07-24T09:29:05.153Z,10.90
2018-07-24T09:31:32.862Z,12.23
2018-07-24T09:34:00.536Z,11.40
2018-07-24T09:36:28.222Z,10.93
2018-07-24T09:38:55.899Z,11.87
2018-07-24T09:41:23.636Z,10.20
2018-07-24T09:43:51.316Z,10.23
2018-07-24T09:46:19.139Z,9.87
2018-07-24T09:48:46.857Z,10.50
2018-07-24T09:51:14.610Z,10.47
2018-07-24T09:53:42.287Z,10.93
2018-07-24T09:56:09.980Z,9.23
2018-07-24T09:58:37.787Z,10.30
2018-07-24T10:01:11.108Z,10.07
2018-07-24T10:03:38.788Z,9.90
2018-07-24T10:06:06.505Z,10.03
2018-07-24T10:08:34.249Z,10.37
2018-07-24T10:11:01.990Z,10.30
2018-07-24T10:13:29.657Z,9.80
2018-07-24T10:15:57.368Z,10.17
2018-07-24T10:18:25.199Z,10.97
2018-07-24T10:20:52.892Z,10.93
2018-07-24T10:23:20.586Z,10.17
2018-07-24T10:25:48.255Z,10.20
2018-07-24T10:28:15.967Z,9.83
2018-07-24T10:30:43.665Z,9.77
2018-07-24T10:33:11.462Z,9.77
2018-07-24T10:35:39.147Z,10.43
2018-07-24T10:38:06.844Z,10.93
2018-07-24T10:40:34.563Z,10.13
2018-07-24T10:43:02.322Z,9.63
2018-07-24T10:45:29.979Z,9.37
2018-07-24T10:47:57.609Z,9.33
2018-07-24T10:50:25.359Z,9.67
2018-07-24T10:52:53.012Z,9.13
2018-07-24T10:55:20.717Z,9.23
2018-07-24T10:57:48.622Z,9.33
2018-07-24T11:00:16.210Z,9.13
2018-07-24T11:02:44.059Z,9.00
2018-07-24T11:05:11.947Z,8.63
2018-07-24T11:07:39.602Z,8.90
2018-07-24T11:10:07.302Z,9.40
2018-07-24T11:12:34.999Z,8.00
2018-07-24T11:15:02.588Z,8.40
2018-07-24T11:17:30.263Z,8.10
2018-07-24T11:19:57.964Z,8.27
2018-07-24T11:22:26.779Z,8.70
2018-07-24T11:24:54.324Z,8.07
2018-07-24T11:27:21.984Z,8.57
2018-07-24T11:29:52.920Z,16.30
2018-07-24T11:32:21.631Z,8.40
2018-07-24T11:34:49.198Z,8.50
2018-07-24T11:37:16.861Z,7.90
2018-07-24T11:39:44.515Z,6.87
2018-07-24T11:42:12.263Z,8.17
2018-07-24T11:44:39.930Z,8.37
2018-07-24T11:47:07.644Z,7.43
2018-07-24T11:49:35.318Z,7.63
2018-07-24T11:52:03.179Z,8.20
2018-07-24T11:54:30.855Z,7.77
2018-07-24T11:56:58.558Z,7.87
2018-07-24T11:59:26.235Z,7.57
2018-07-24T12:01:54.032Z,7.20
2018-07-24T12:04:21.723Z,7.60
2018-07-24T12:06:49.424Z,8.30
2018-07-24T12:09:17.327Z,7.87
2018-07-24T12:11:45.068Z,7.80
2018-07-24T12:14:12.756Z,7.87
2018-07-24T12:16:40.439Z,7.43
2018-07-24T12:19:08.177Z,7.53
2018-07-24T12:21:35.864Z,7.43
2018-07-24T12:24:03.600Z,7.80
2018-07-24T12:26:31.497Z,7.20
2018-07-24T12:28:59.626Z,7.90
2018-07-24T12:31:27.332Z,7.80
2018-07-24T12:33:55.007Z,8.77
2018-07-24T12:36:22.684Z,8.60
2018-07-24T12:38:50.412Z,7.90
2018-07-24T12:41:21.057Z,8.13
2018-07-24T12:43:49.857Z,7.77
2018-07-24T12:46:17.581Z,7.77
2018-07-24T12:48:45.299Z,8.30
2018-07-24T12:51:13.032Z,7.80
2018-07-24T12:53:40.785Z,8.23
2018-07-24T12:56:08.503Z,8.07
2018-07-24T12:58:36.219Z,9.10
2018-07-24T13:01:03.900Z,8.07
2018-07-24T13:03:31.745Z,7.90
2018-07-24T13:05:59.457Z,7.63
2018-07-24T13:08:27.116Z,7.67
2018-07-24T13:10:54.923Z,8.17
2018-07-24T13:13:22.623Z,7.80
2018-07-24T13:15:50.454Z,7.57
2018-07-24T13:18:18.107Z,7.83
2018-07-24T13:20:45.839Z,8.73
2018-07-24T13:23:13.524Z,6.83
2018-07-24T13:25:41.264Z,7.80
2018-07-24T13:28:08.954Z,7.10
2018-07-24T13:30:36.800Z,7.53
2018-07-24T13:33:04.510Z,7.20
2018-07-24T13:35:32.251Z,7.00
2018-07-24T13:37:59.968Z,6.90
2018-07-24T13:40:27.646Z,6.87
2018-07-24T13:42:55.351Z,7.00
2018-07-24T13:45:23.032Z,6.83
2018-07-24T13:47:50.851Z,7.50
2018-07-24T13:50:18.571Z,6.53
2018-07-24T13:52:46.349Z,7.03
2018-07-24T13:55:14.009Z,7.80
2018-07-24T13:57:41.753Z,7.13
2018-07-24T14:00:09.627Z,6.63
2018-07-24T14:02:37.464Z,7.07
2018-07-24T14:05:05.221Z,6.77
2018-07-24T14:07:32.930Z,6.40
2018-07-24T14:10:00.645Z,6.60
2018-07-24T14:12:28.353Z,7.00
2018-07-24T14:14:56.040Z,6.40
2018-07-24T14:17:23.941Z,7.03
2018-07-24T14:19:51.656Z,6.00
2018-07-24T14:22:19.327Z,6.70
2018-07-24T14:24:47.065Z,6.13
2018-07-24T14:27:14.792Z,6.47
2018-07-24T14:29:42.529Z,6.50
2018-07-24T14:32:10.235Z,5.90
2018-07-24T14:34:38.040Z,5.80
2018-07-24T14:37:05.763Z,6.47
2018-07-24T14:39:33.489Z,6.67
2018-07-24T14:42:01.184Z,6.47
2018-07-24T14:44:28.956Z,6.20
2018-07-24T14:46:58.284Z,7.17
2018-07-24T14:49:26.119Z,6.77
2018-07-24T14:51:53.788Z,6.50
2018-07-24T14:54:21.663Z,6.73
2018-07-24T14:56:49.644Z,6.83
2018-07-24T14:59:17.475Z,6.80
2018-07-24T15:01:45.295Z,6.30
2018-07-24T15:04:12.955Z,7.00
2018-07-24T15:06:40.623Z,6.97
2018-07-24T15:09:09.884Z,6.63
2018-07-24T15:11:37.581Z,7.30
2018-07-24T15:14:05.277Z,6.60
2018-07-24T15:16:33.068Z,6.40
2018-07-24T15:19:01.737Z,6.80
2018-07-24T15:21:31.383Z,7.70
2018-07-24T15:24:03.537Z,6.27
2018-07-24T15:26:31.444Z,6.17
2018-07-24T15:28:59.768Z,5.83
2018-07-24T15:31:28.615Z,6.77
2018-07-24T15:33:56.525Z,6.40
2018-07-24T15:36:25.653Z,6.20
2018-07-24T15:38:53.814Z,6.53
2018-07-24T15:41:21.832Z,7.00
2018-07-24T15:43:49.529Z,6.67
2018-07-24T15:46:17.287Z,7.03
2018-07-24T15:48:49.600Z,6.20
2018-07-24T15:51:18.470Z,6.07
2018-07-24T15:53:47.199Z,6.47
2018-07-24T15:56:15.184Z,6.83
2018-07-24T15:58:43.019Z,6.37
2018-07-24T16:01:10.723Z,6.70
2018-07-24T16:03:38.515Z,6.77
2018-07-24T16:06:06.360Z,6.00
2018-07-24T16:08:34.096Z,6.60
2018-07-24T16:11:02.099Z,6.27
2018-07-24T16:13:29.831Z,5.67
2018-07-24T16:15:57.704Z,6.17
2018-07-24T16:18:25.324Z,6.27
2018-07-24T16:20:53.012Z,5.90
2018-07-24T16:23:20.705Z,6.13
2018-07-24T16:25:49.773Z,6.10
2018-07-24T16:28:18.145Z,5.70
2018-07-24T16:30:45.923Z,6.33
2018-07-24T16:33:13.697Z,6.63
2018-07-24T16:35:41.410Z,6.47
2018-07-24T16:38:09.139Z,7.90
2018-07-24T16:40:36.991Z,6.70
2018-07-24T16:43:10.868Z,5.80
2018-07-24T16:45:38.875Z,6.07
2018-07-24T16:48:06.642Z,5.90
2018-07-24T16:50:34.386Z,6.10
2018-07-24T16:53:02.060Z,6.40
2018-07-24T20:19:52.254Z,8.20
2018-07-24T20:22:19.988Z,8.30
2018-07-24T20:24:47.777Z,7.80
2018-07-24T20:27:15.532Z,9.10
2018-07-24T20:29:43.586Z,9.17
2018-07-24T20:32:11.287Z,8.73
2018-07-24T20:34:39.062Z,8.53
2018-07-24T20:37:06.785Z,9.90
2018-07-24T20:39:34.537Z,8.70
2018-07-24T20:42:02.323Z,9.13
2018-07-24T20:44:30.058Z,9.20
2018-07-24T20:46:57.847Z,9.40
2018-07-24T20:49:25.603Z,9.40
2018-07-24T20:51:53.360Z,9.30
2018-07-24T20:54:21.278Z,14.10
2018-07-24T20:56:49.103Z,9.03
2018-07-24T20:59:16.983Z,9.60
2018-07-24T21:01:44.711Z,9.97
2018-07-24T21:04:12.385Z,9.60
2018-07-24T21:06:40.088Z,9.97
2018-07-24T21:09:08.737Z,11.13
2018-07-24T21:11:37.485Z,10.17
2018-07-24T21:14:05.363Z,10.20
2018-07-24T21:16:33.022Z,10.47
2018-07-24T21:19:00.738Z,11.00
2018-07-24T21:21:28.444Z,12.13
2018-07-24T21:23:56.175Z,10.60
2018-07-24T21:26:23.881Z,10.60
2018-07-24T21:28:51.712Z,11.43
2018-07-24T21:31:19.399Z,10.80
2018-07-24T21:33:47.067Z,10.77
2018-07-24T21:36:14.708Z,9.57
2018-07-24T21:38:42.404Z,9.97
2018-07-24T21:41:10.139Z,10.13
2018-07-24T21:43:37.927Z,11.00
2018-07-24T21:46:05.839Z,9.90
2018-07-24T21:48:33.523Z,11.23
2018-07-24T21:51:01.199Z,10.40
2018-07-24T21:53:28.845Z,10.37
2018-07-24T21:55:56.555Z,11.17
2018-07-24T21:58:24.242Z,11.03
2018-07-24T22:00:57.724Z,11.17
2018-07-24T22:03:25.516Z,10.93
2018-07-24T22:05:53.236Z,12.57
2018-07-24T22:08:20.935Z,12.47
2018-07-24T22:10:48.631Z,12.10
2018-07-24T22:13:16.313Z,11.07
2018-07-24T22:15:43.959Z,10.10
2018-07-24T22:18:11.796Z,10.40
2018-07-24T22:20:39.427Z,10.50
2018-07-24T22:23:07.128Z,10.77
2018-07-24T22:25:34.829Z,11.10
2018-07-24T22:28:02.519Z,11.33
2018-07-24T22:30:30.160Z,10.73
2018-07-24T22:32:57.958Z,10.90
2018-07-24T22:35:25.653Z,11.90
2018-07-24T22:37:53.348Z,12.13
2018-07-24T22:40:21.005Z,11.43
2018-07-24T22:42:48.683Z,12.30
2018-07-24T22:45:16.389Z,11.30
2018-07-24T22:47:44.072Z,11.43
2018-07-24T22:50:11.852Z,13.03
2018-07-24T22:52:39.520Z,12.27
2018-07-24T22:55:07.201Z,12.10
2018-07-24T22:57:34.852Z,13.57
2018-07-24T23:00:02.522Z,13.37
2018-07-24T23:02:30.334Z,14.00
2018-07-24T23:04:58.135Z,12.30
2018-07-24T23:07:25.812Z,12.40
2018-07-24T23:09:53.485Z,13.33
2018-07-24T23:12:21.204Z,13.20
2018-07-24T23:14:48.847Z,12.80
2018-07-24T23:17:16.604Z,13.23
2018-07-24T23:19:44.250Z,12.90
2018-07-24T23:22:12.007Z,12.67
2018-07-24T23:24:39.632Z,13.20
2018-07-24T23:27:07.319Z,14.23
2018-07-24T23:29:34.968Z,13.93
2018-07-24T23:32:02.666Z,12.90
2018-07-24T23:34:30.322Z,12.70
2018-07-24T23:36:58.119Z,12.53
2018-07-24T23:39:25.786Z,12.70
2018-07-24T23:41:53.455Z,12.53
2018-07-24T23:44:21.164Z,11.73
2018-07-24T23:46:48.927Z,11.83
2018-07-24T23:49:16.555Z,12.37
2018-07-24T23:51:44.225Z,11.80
2018-07-24T23:54:12.002Z,11.50
2018-07-24T23:56:39.706Z,12.30
2018-07-24T23:59:07.488Z,12.50
